Bergen Point, New Jersey
Current Conditions -  °F | °C
As of 7:51 AM on Sunday 23 Nov 2014 (Local Time) from KEWR Reporting Station
Broken Clouds Broken Clouds  
Wind Chill: 38°   Ceiling: 9000
Heat Index: 42°   Visibility: 10mi
Dew Point: 24°   Wind: 7mph
Humidity: 49%   Direction: 230°SW
Pressure: 30.22"   Gusts: NA
Location:  40.6645°N, 74.1108°W
Report Text: KEWR 231251Z 23006KT 10SM BKN090 BKN120 BKN150 06/M04 A3022 RMK AO2 SLP231 T00561044
Loading
Personal Weather Stations






























Interactive Weather Map New forecast layout! Learn more

10-Day Weather Forecast

Advertisements
Track Severe Weather on mobile